METAR Data
IDs: Format: Raw Decoded Include TAF

Data at: 0457 UTC 20 Oct 2018

PAIW 200420Z AUTO 07009KT 4SM -RA BR OVC006 04/03 A2957 RMK AO2 CIG 003V009 P0000
PAIW 200411Z AUTO 05008KT 2 1/2SM -RA BR OVC006 04/03 A2957 RMK AO2 VIS 2V4 CIG 003V007 P0000
PAIW 200356Z AUTO 06008KT 4SM -RA BR OVC006 04/03 A2957 RMK AO2 RAB16 CIG 004V008 SLP014 P0000 T00390033
PAIW 200348Z AUTO 06008KT 2 1/2SM -RA BR OVC006 04/03 A2957 RMK AO2 RAB16 CIG 004V008 P0000
PAIW 200331Z AUTO 07008KT 3SM -RA BR OVC006 04/03 A2956 RMK AO2 RAB16 CIG 004V008 P0000
PAIW 200324Z AUTO 05007KT 1 1/2SM -RA BR OVC006 03/03 A2957 RMK AO2 RAB16 CIG 004V011 P0000
PAIW 200317Z AUTO 05007KT 1 3/4SM -RA BR BKN004 OVC008 04/03 A2957 RMK AO2 RAB16 P0000
PAIW 200256Z AUTO 05006KT 10SM OVC006 04/03 A2957 RMK AO2 CIG 005V009 SLP015 60000 T00390033 58014
PAIW 200156Z AUTO 05006KT 4SM BR BKN006 OVC010 04/03 A2959 RMK AO2 RAB12E29 CIG 003V008 SLP020 P0000 T00390033
PAIW 200109Z AUTO 06010KT 7SM BKN006 OVC012 04/03 A2959 RMK AO2 CIG 003V008
PAIW 200056Z AUTO 06009KT 7SM SCT006 BKN010 OVC014 04/03 A2960 RMK AO2 RAE49 CIG 007V012 SLP024 P0000 T00390033
PAIW 192356Z AUTO 05008KT 4SM -RA BR BKN006 OVC009 04/03 A2961 RMK AO2 RAB11 CIG 003V007 SLP029 P0000 60000 T00390033 10039 20017 56006
PAIW 192256Z AUTO 07008KT 8SM OVC006 03/03 A2962 RMK AO2 RAB40E51 CIG 004V010 SLP031 P0000 T00330028
PAIW 192251Z AUTO 07010KT 9SM OVC004 03/03 A2962 RMK AO2 RAB40E51 CIG 004V008 P0000
PAIW 192210Z AUTO 07011KT 6SM BR OVC008 03/02 A2963 RMK AO2 CIG 005V010
PAIW 192156Z AUTO 09012KT 6SM BR BKN005 OVC008 03/02 A2963 RMK AO2 SLP035 T00280022
PAIW 192056Z AUTO 08015KT 6SM BR OVC008 03/02 A2964 RMK AO2 CIG 005V011 SLP039 T00280022 58008
PAIW 191956Z AUTO 08015KT 10SM OVC006 02/01 A2965 RMK AO2 CIG 003V008 SLP042 T00220011 FZRANO
PAIW 191923Z AUTO 08013G20KT 10SM BKN008 OVC014 02/01 A2965 RMK AO2 CIG 005V010 FZRANO
PAIW 191909Z AUTO 09015KT 10SM OVC013 02/01 A2966 RMK AO2 FZRANO
PAIW 191856Z AUTO 08016KT 10SM OVC015 02/01 A2966 RMK AO2 SLP044 T00170006 FZRANO
PAIW 191756Z AUTO 08011G18KT 10SM OVC013 02/01 A2966 RMK AO2 SLP046 60000 T00170006 10017 21006 58012 FZRANO
PAIW 191745Z AUTO 08014KT 10SM OVC013 01/01 A2967 RMK AO2 FZRANO
PAIW 191656Z AUTO 08015KT 10SM BKN017 OVC055 01/01 A2968 RMK AO2 RAB09E45UPB20E23B45E50 SLP051 P0000 T00110006 FZRANO
PAIW 191551Z AUTO 08014KT 10SM SCT005 OVC019 01/00 A2970 RMK AO2 FZRANO
PAIW 191525Z AUTO 09015KT 10SM BKN005 OVC021 01/00 A2970 RMK AO2 FZRANO
PAIW 191456Z AUTO 08010KT 10SM FEW004 OVC019 01/00 A2971 RMK AO2 SLP063 T00060000 58015 FZRANO
PAIW 191423Z AUTO 08012KT 10SM SCT004 OVC019 00/M01 A2972 RMK AO2 FZRANO
PAIW 191356Z AUTO 07012KT 10SM OVC019 00/M01 A2973 RMK AO2 SLP069 T00001006 FZRANO
PAIW 191256Z AUTO 07012KT 10SM OVC019 01/M01 A2975 RMK AO2 SLP075 T00061006 FZRANO
PAIW 191239Z AUTO 08013G19KT 10SM SCT005 OVC019 00/M01 A2975 RMK AO2 FZRANO
PAIW 191206Z AUTO 06012KT 10SM BKN005 OVC013 00/M01 A2976 RMK AO2 FZRANO
PAIW 191156Z AUTO 07012KT 10SM BKN007 OVC013 00/M01 A2976 RMK AO2 CIG 005V010 SLP078 60000 T00001006 10006 21011 56008 FZRANO
PAIW 191146Z AUTO 08014KT 10SM OVC013 00/M01 A2976 RMK AO2 FZRANO
PAIW 191119Z AUTO 07012KT 10SM OVC015 M01/M01 A2977 RMK AO2 FZRANO
PAIW 191056Z AUTO 07014KT 10SM BKN013 OVC018 M01/M02 A2977 RMK AO2 SLP083 T10111017 FZRANO
PAIW 191049Z AUTO 08015KT 10SM BKN011 OVC018 M01/M02 A2977 RMK AO2 FZRANO
PAIW 191004Z AUTO 08015KT 10SM SCT016 OVC022 M01/M02 A2978 RMK AO2 FZRANO
PAIW 190956Z AUTO 07014KT 10SM BKN014 OVC024 M01/M02 A2978 RMK AO2 SLP086 T10111022 FZRANO
PAIW 190911Z AUTO 07011KT 10SM BKN026 M01/M02 A2980 RMK AO2 FZRANO
PAIW 190856Z AUTO 06011KT 10SM SCT026 M01/M02 A2980 RMK AO2 SLP092 60000 T10111022 400331011 55004 FZRANO
PAIW 190756Z AUTO 07011KT 10SM CLR M01/M02 A2980 RMK AO2 SLP092 T10061017 FZRANO
PAIW 190656Z AUTO 08012KT 10SM SCT032 01/M01 A2980 RMK AO2 UPB08E12SNE08 SLP094 P0000 T00061006 FZRANO
PAIW 190617Z AUTO 07008KT 10SM FEW010 SCT017 BKN036 01/00 A2981 RMK AO2 UPB08E12SNE08 P0000 FZRANO
PAIW 190605Z AUTO 06008KT 8SM -SN FEW006 BKN017 OVC038 01/00 A2981 RMK AO2 P0000 FZRANO
PAIW 190556Z AUTO 05008KT 5SM -SN BR SCT011 BKN017 OVC030 01/00 A2981 RMK AO2 UPB38E46RAB46E52SNB52 SLP096 P0000 60000 T00060000 10028 20006 56003 FZRANO
PAIW 190545Z AUTO 07008KT 9SM UP SCT011 BKN018 OVC037 01/00 A2981 RMK AO2 UPB38 P0000 FZRANO
PAIW 190533Z AUTO 06010KT 10SM FEW008 BKN032 OVC039 01/M01 A2981 RMK AO2 FZRANO
PAIW 190456Z AUTO 04009KT 10SM OVC035 02/M02 A2981 RMK AO2 SLP097 T00221017 FZRANO
PAIW 190356Z AUTO 04015KT 10SM OVC037 02/M02 A2981 RMK AO2 UPB07E21 SLP097 P0000 T00221017 FZRANO
PAIW 190346Z AUTO 03013KT 10SM SCT029 OVC038 02/M02 A2981 RMK AO2 UPB07E21 P0000 FZRANO
PAIW 190307Z AUTO 03015KT 10SM UP BKN029 OVC035 02/M02 A2982 RMK AO2 UPB07 P0000 FZRANO
PAIW 190256Z AUTO 03016KT 10SM OVC033 02/M03 A2982 RMK AO2 SLP099 T00221028 58005 FZRANO
PAIW 190156Z AUTO 03014G23KT 10SM OVC033 02/M02 A2983 RMK AO2 SLP102 T00221022 FZRANO
PAIW 190056Z AUTO 03017G23KT 10SM OVC033 02/M03 A2983 RMK AO2 SLP103 T00221028 FZRANO
PAIW 182356Z AUTO 03017G24KT 10SM OVC036 03/M02 A2983 RMK AO2 SLP104 60000 T00281022 10033 20022 58004
PAIW 182256Z AUTO 03019G24KT 10SM BKN038 03/M02 A2984 RMK AO2 SLP106 T00331017
PAIW 182156Z AUTO 03016KT 10SM BKN038 03/M01 A2985 RMK AO2 PK WND 02027/2124 SLP109 T00281006
PAIW 182056Z AUTO 03018G25KT 10SM BKN034 OVC055 03/M02 A2985 RMK AO2 SLP108 60000 T00281017 52005
PAIW 181956Z AUTO 04018G25KT 10SM OVC036 03/M02 A2984 RMK AO2 UPE03 SLP107 P0000 T00281017
PAIW 181918Z AUTO 03018KT 10SM BKN030 OVC037 02/M01 A2984 RMK AO2 UPE03 P0000 FZRANO
PAIW 181856Z AUTO 03014G19KT 10SM UP BKN028 OVC033 02/M01 A2984 RMK AO2 UPB35 SLP105 P0000 T00221011 FZRANO
PAIW 181843Z AUTO 03015G20KT 10SM UP OVC028 02/M02 A2984 RMK AO2 UPB35 P0000 FZRANO
PAIW 181756Z AUTO 04016KT 10SM BKN030 OVC036 02/M01 A2983 RMK AO2 SLP104 60000 T00221011 10022 20011 53006 FZRANO